Flight Track Log - Related Links

Times and Time Zones

All times are in EDT time to prevent confusion due to time zone crossing. See the UAL3776 flight status page for this flight to view local times or setup timezone preferences in your user account.

Time Position Orientation Groundspeed Altitude Reporting Facility
EDT Latitude Longitude Course Direction KTS MPH feet Rate Location/Type
Fri 03:53:42 PM 38.8833 -77.4333 247° West 184 212 3,000  Level Potomac TRACON
Fri 03:54:42 PM 38.8333 -77.4500 195° South 209 241 5,400 2,750 Climbing Potomac TRACON
Fri 03:55:00 PM 38.6712 -77.5843 189° South  Level Estimated
Fri 03:55:42 PM 38.7667 -77.4500 180° South 231 266 8,500  Level Potomac TRACON
Fri 03:56:00 PM 38.5774 -77.5496 164° South  Level FlightAware Approximate
Fri 03:56:37 PM 38.7167 -77.4667 195° South 253 291 10,600  Level Potomac TRACON
Fri 03:57:00 PM 38.4860 -77.5931 185° South  Level Estimated
Fri 03:57:37 PM 38.6333 -77.5000 197° South 254 292 13,000  Level Potomac TRACON
Fri 03:57:55 PM 38.6231 -77.5022 190° South 266 306 13,300 2,000 Climbing Washington Center
Fri 03:58:00 PM 38.3833 -77.5827 270° West  Level FlightAware Approximate
Fri 03:58:55 PM 38.5414 -77.5267 193° South 290 334 15,600  Level Washington Center
Fri 03:59:00 PM 38.3118 -77.6645 247° West  Level FlightAware Approximate
Fri 03:59:55 PM 38.4594 -77.5564 196° South 298 343 17,400  Level Washington Center
Fri 04:01:00 PM 38.3833 -77.5806 270° West  Level FlightAware Approximate
Fri 04:01:55 PM 38.3336 -77.7225 270° West 317 365 20,900  Level Washington Center
Fri 04:02:55 PM 38.2694 -77.8133 228° Southwest 337 388 22,000 550 Climbing Washington Center
Fri 04:03:55 PM 38.1925 -77.9139 226° Southwest 354 407 22,000  Level Washington Center
Fri 04:04:55 PM 38.1197 -78.0119 227° Southwest 370 426 22,000  Level Washington Center
Fri 04:05:55 PM 38.0511 -78.1075 228° Southwest 370 426 22,000  Level Washington Center
Fri 04:06:55 PM 37.9703 -78.1811 216° Southwest 364 419 22,000  Level Washington Center
Fri 04:07:55 PM 37.8939 -78.2336 208° Southwest 364 419 22,000  Level Washington Center
Fri 04:08:55 PM 37.8069 -78.2939 209° Southwest 364 419 22,000  Level Washington Center
Fri 04:09:55 PM 37.7056 -78.3583 207° Southwest 364 419 22,000  Level Washington Center
Fri 04:10:55 PM 37.6167 -78.4156 207° Southwest 364 419 22,000  Level Washington Center
Fri 04:11:55 PM 37.5233 -78.4747 207° Southwest 371 427 22,000  Level Washington Center
Fri 04:12:55 PM 37.4322 -78.5342 207° Southwest 371 427 22,000  Level Washington Center
Fri 04:13:55 PM 37.3411 -78.5908 206° Southwest 371 427 22,000  Level Washington Center
Fri 04:14:55 PM 37.2583 -78.6422 206° Southwest 371 427 22,000  Level Washington Center
Fri 04:15:55 PM 37.1672 -78.7011 207° Southwest 371 427 22,000 -450 Level Washington Center
Fri 04:16:55 PM 37.0758 -78.7625 208° Southwest 371 427 21,100 -1,250 Descending Washington Center
Fri 04:17:55 PM 36.9811 -78.7953 195° South 365 420 19,500 -1,800 Descending Washington Center
Fri 04:18:55 PM 36.8758 -78.7594 165° South 347 399 17,500 -1,800 Descending Washington Center
Fri 04:19:55 PM 36.7917 -78.7069 153° Southeast 342 394 15,900 -1,700 Descending Washington Center
Fri 04:20:55 PM 36.7097 -78.6439 148° Southeast 332 382 14,100 -1,900 Descending Washington Center
Fri 04:21:55 PM 36.6339 -78.5867 149° Southeast 332 382 12,100 -1,024 Descending Washington Center
Fri 04:22:58 PM 36.5500 -78.5239 149° Southeast 322 371 12,000 -415 Descending Washington Center
Fri 04:24:05 PM 36.4619 -78.5361 186° South 282 325 11,200 -1,140 Descending Washington Center
Fri 04:24:59 PM 36.4011 -78.5569 195° South 240 276 9,700 -1,617 Descending Washington Center
Fri 04:26:00 PM 36.3381 -78.5778 195° South 231 266 8,100 -1,552 Descending Washington Center
Fri 04:26:55 PM 36.2875 -78.5967 197° South 231 266 6,700 -1,670 Descending Washington Center
Fri 04:27:55 PM 36.2222 -78.6172 194° South 225 259 4,900 -1,842 Descending Washington Center
Fri 04:28:49 PM 36.1653 -78.6356 195° South 227 261 3,200 -991 Descending Washington Center
Fri 04:29:50 PM 36.1022 -78.6564 195° South 231 266 3,000 -143 Descending Washington Center
Fri 04:30:55 PM 36.0369 -78.6769 194° South 225 259 2,900 -378 Descending Washington Center
Fri 04:31:57 PM 35.9822 -78.6953 195° South 189 217 2,200 -677 Descending Washington Center

Login

Don't have an account? Register now (free) for customized features, flight alerts, and more!